Time;durP1;ratioP1;P1;durP2;ratioP2;P2;SDS_P1;SDS_P2;PMS_P1;PMS_P2;Temp;Humidity;BMP_temperature;BMP_pressure;BME280_temperature;BME280_humidity;BME280_pressure;Samples;Min_cycle;Max_cycle;Signal;HPM_P1;HPM_P2
2022/02/13 00:01:43;;;;;;;;;;;;;;;2.76;48.50;101501.53;4361195;32;33397;-80
2022/02/13 00:04:31;;;;;;;;;;;;;;;2.81;48.21;101501.37;4356473;32;34192;-79
2022/02/13 00:07:01;;;;;;;;;;;;;;;2.78;48.10;101504.09;4358281;32;33493;-79
2022/02/13 00:09:30;;;;;;;;;;;;;;;2.68;48.04;101500.09;4358730;32;34036;-79
2022/02/13 00:12:39;;;;;;;;;;;;;;;2.62;48.27;101499.47;4357076;32;34003;-80
2022/02/13 00:15:07;;;;;;;;;;;;;;;2.62;48.34;101491.56;4358293;32;34516;-80
2022/02/13 00:17:39;;;;;;;;;;;;;;;2.47;49.09;101487.72;4352761;32;31735;-79
2022/02/13 00:20:24;;;;;;;;;;;;;;;2.51;48.94;101493.69;4361141;32;33307;-79
2022/02/13 00:23:08;;;;;;;;;;;;;;;2.59;48.52;101489.91;4334091;32;36085;-78
2022/02/13 00:25:37;;;;;;;;;;;;;;;2.58;48.37;101482.94;4360305;32;34381;-80
2022/02/13 00:28:08;;;;;;;;;;;;;;;2.38;49.20;101495.91;4369375;32;33651;-79
2022/02/13 00:30:36;;;;;;;;;;;;;;;2.22;49.88;101491.19;4363067;32;32700;-80
2022/02/13 00:33:04;;;;;;;;;;;;;;;2.46;49.12;101493.00;4357889;32;34927;-79
2022/02/13 00:35:33;;;;;;;;;;;;;;;2.45;49.06;101486.88;4349307;32;34704;-80
2022/02/13 00:38:02;;;;;;;;;;;;;;;2.33;49.36;101487.31;4367435;32;34201;-80
2022/02/13 00:40:31;;;;;;;;;;;;;;;2.23;49.44;101495.53;4367773;32;34022;-80
2022/02/13 00:42:59;;;;;;;;;;;;;;;2.29;49.05;101490.09;4343773;32;36435;-79
2022/02/13 00:45:29;;;;;;;;;;;;;;;2.51;48.48;101481.44;4346795;32;33507;-79
2022/02/13 00:47:59;;;;;;;;;;;;;;;2.26;49.40;101485.78;4369920;32;33640;-79
2022/02/13 00:50:36;;;;;;;;;;;;;;;1.31;51.46;101489.78;4362052;32;32892;-79
2022/02/13 00:53:08;;;;;;;;;;;;;;;2.04;49.81;101482.19;4374025;32;35554;-80
2022/02/13 00:55:37;;;;;;;;;;;;;;;1.99;50.35;101475.38;4354537;32;34287;-79
2022/02/13 00:58:05;;;;;;;;;;;;;;;1.91;50.39;101480.87;4356443;32;32309;-79
2022/02/13 01:00:53;;;;;;;;;;;;;;;1.90;50.59;101480.91;4364532;32;34085;-79
2022/02/13 01:03:40;;;;;;;;;;;;;;;2.25;49.41;101478.81;4360743;32;34708;-79
2022/02/13 01:06:11;;;;;;;;;;;;;;;2.08;49.43;101478.53;4357016;32;36707;-80
2022/02/13 01:08:54;;;;;;;;;;;;;;;2.13;49.48;101473.13;4345054;32;32533;-79
2022/02/13 01:11:23;;;;;;;;;;;;;;;2.14;49.57;101470.47;4369509;32;34018;-79
2022/02/13 01:13:52;;;;;;;;;;;;;;;2.02;49.88;101481.37;4366593;32;34970;-79
2022/02/13 01:16:20;;;;;;;;;;;;;;;2.21;49.73;101473.72;4344764;32;33696;-79
2022/02/13 01:19:09;;;;;;;;;;;;;;;2.20;49.48;101477.28;4364461;32;33410;-80
2022/02/13 01:21:41;;;;;;;;;;;;;;;2.36;48.99;101470.59;4365728;32;33737;-79
2022/02/13 01:24:30;;;;;;;;;;;;;;;2.53;48.37;101469.09;4353704;32;34334;-79
2022/02/13 01:27:09;;;;;;;;;;;;;;;2.23;49.20;101474.53;4356120;32;33871;-80
2022/02/13 01:29:42;;;;;;;;;;;;;;;2.30;48.98;101466.41;4353329;32;32597;-80
2022/02/13 01:32:14;;;;;;;;;;;;;;;2.06;49.24;101464.59;4346318;32;34079;-79
2022/02/13 01:34:42;;;;;;;;;;;;;;;2.20;49.11;101454.50;4353483;32;34652;-79
2022/02/13 01:37:10;;;;;;;;;;;;;;;2.16;49.01;101460.75;4352054;32;34512;-79
2022/02/13 01:40:09;;;;;;;;;;;;;;;2.17;49.19;101446.72;4365935;32;32800;-80
2022/02/13 01:42:37;;;;;;;;;;;;;;;1.78;50.24;101453.28;4352679;32;34716;-79
2022/02/13 01:45:09;;;;;;;;;;;;;;;2.03;49.59;101445.47;4340150;32;36708;-79
2022/02/13 01:47:53;;;;;;;;;;;;;;;1.97;49.83;101443.91;4341519;32;33101;-79
2022/02/13 01:50:26;;;;;;;;;;;;;;;1.94;50.00;101444.03;4351944;32;34056;-79
2022/02/13 01:52:56;;;;;;;;;;;;;;;1.87;50.06;101442.50;4363950;32;34786;-79
2022/02/13 01:55:24;;;;;;;;;;;;;;;1.91;49.70;101432.75;4364662;32;36084;-79
2022/02/13 01:57:53;;;;;;;;;;;;;;;1.84;50.06;101432.12;4360025;32;34029;-79
2022/02/13 02:00:25;;;;;;;;;;;;;;;1.69;50.57;101434.38;4344977;32;33511;-79
2022/02/13 02:02:53;;;;;;;;;;;;;;;1.81;50.33;101433.97;4354393;32;33189;-80
2022/02/13 02:05:22;;;;;;;;;;;;;;;1.88;50.14;101425.00;4354499;32;34123;-80
2022/02/13 02:08:10;;;;;;;;;;;;;;;1.80;50.30;101425.25;4345102;32;33455;-80
2022/02/13 02:10:58;;;;;;;;;;;;;;;1.83;50.13;101419.91;4363029;32;32920;-80
2022/02/13 02:13:27;;;;;;;;;;;;;;;1.93;49.58;101421.31;4352948;32;34311;-80
2022/02/13 02:15:56;;;;;;;;;;;;;;;1.87;49.54;101420.66;4364023;32;34405;-80
2022/02/13 02:18:34;;;;;;;;;;;;;;;1.81;49.64;101423.47;4335677;32;33962;-80
2022/02/13 02:21:04;;;;;;;;;;;;;;;1.86;49.44;101417.19;4352866;32;32367;-80
2022/02/13 02:23:33;;;;;;;;;;;;;;;1.90;49.34;101410.91;4371519;32;33830;-79
2022/02/13 02:26:03;;;;;;;;;;;;;;;1.94;49.09;101403.78;4356359;32;35091;-79
2022/02/13 02:28:36;;;;;;;;;;;;;;;1.83;49.38;101405.91;4341853;32;34161;-79
2022/02/13 02:31:03;;;;;;;;;;;;;;;1.91;48.95;101402.16;4354345;32;32267;-79
2022/02/13 02:33:52;;;;;;;;;;;;;;;1.89;49.04;101403.09;4360927;32;32369;-79
2022/02/13 02:36:20;;;;;;;;;;;;;;;1.86;49.24;101393.56;4365997;32;35319;-79
2022/02/13 02:39:06;;;;;;;;;;;;;;;1.85;49.05;101404.97;4372896;32;33612;-80
2022/02/13 02:44:19;;;;;;;;;;;;;;;1.81;49.18;101392.84;4343971;32;34523;-76
2022/02/13 02:46:47;;;;;;;;;;;;;;;1.58;49.78;101389.25;4352533;32;36221;-76
2022/02/13 02:49:14;;;;;;;;;;;;;;;1.53;50.12;101391.19;4351795;32;33927;-76
2022/02/13 02:51:42;;;;;;;;;;;;;;;1.40;50.32;101385.47;4338788;32;33369;-76
2022/02/13 02:54:09;;;;;;;;;;;;;;;1.55;49.64;101385.00;4350771;32;34887;-76
2022/02/13 02:56:37;;;;;;;;;;;;;;;1.47;50.04;101386.13;4336747;32;35549;-76
2022/02/13 02:59:05;;;;;;;;;;;;;;;1.42;50.29;101390.69;4332813;33;34841;-76
2022/02/13 03:01:32;;;;;;;;;;;;;;;1.50;50.04;101386.91;4336326;32;32052;-77
2022/02/13 03:04:00;;;;;;;;;;;;;;;1.36;50.12;101386.50;4348600;32;34217;-77
2022/02/13 03:06:27;;;;;;;;;;;;;;;1.19;50.86;101388.78;4338657;32;36570;-77
2022/02/13 03:08:55;;;;;;;;;;;;;;;1.13;50.69;101381.09;4339136;32;34525;-77
2022/02/13 03:11:22;;;;;;;;;;;;;;;1.26;50.28;101378.94;4350986;32;34482;-77
2022/02/13 03:13:49;;;;;;;;;;;;;;;1.35;50.03;101383.91;4351309;32;34124;-78
2022/02/13 03:16:17;;;;;;;;;;;;;;;1.31;49.97;101371.81;4344498;32;36241;-77
2022/02/13 03:18:45;;;;;;;;;;;;;;;1.31;49.95;101375.28;4351117;32;35134;-77
2022/02/13 03:21:12;;;;;;;;;;;;;;;1.36;49.66;101373.38;4351031;32;32936;-77
2022/02/13 03:23:40;;;;;;;;;;;;;;;1.25;50.12;101380.69;4325793;32;33854;-78
2022/02/13 03:26:08;;;;;;;;;;;;;;;1.14;50.48;101371.47;4326685;32;35120;-77
2022/02/13 03:28:35;;;;;;;;;;;;;;;0.89;50.89;101376.63;4350976;32;35308;-76
2022/02/13 03:31:03;;;;;;;;;;;;;;;0.88;50.94;101377.53;4322269;33;33731;-76
2022/02/13 03:33:31;;;;;;;;;;;;;;;0.88;51.01;101374.91;4337605;32;33648;-76
2022/02/13 03:35:58;;;;;;;;;;;;;;;0.95;50.58;101367.72;4352833;32;35363;-76
2022/02/13 03:38:26;;;;;;;;;;;;;;;1.00;50.40;101368.41;4354493;32;34245;-76
2022/02/13 03:40:53;;;;;;;;;;;;;;;0.92;50.46;101368.66;4345527;32;32959;-76
2022/02/13 03:43:20;;;;;;;;;;;;;;;1.13;50.07;101360.13;4336704;32;32569;-76
2022/02/13 03:45:48;;;;;;;;;;;;;;;1.06;50.35;101370.84;4353021;32;34758;-76
2022/02/13 03:48:15;;;;;;;;;;;;;;;0.79;51.07;101363.81;4354099;32;34889;-75
2022/02/13 03:50:42;;;;;;;;;;;;;;;0.64;51.39;101366.88;4352791;32;32729;-76
2022/02/13 03:53:10;;;;;;;;;;;;;;;0.75;51.26;101357.81;4354056;32;34475;-76
2022/02/13 03:55:38;;;;;;;;;;;;;;;0.58;51.38;101361.84;4348312;32;35226;-76
2022/02/13 03:58:05;;;;;;;;;;;;;;;0.56;51.66;101366.28;4340205;32;34980;-76
2022/02/13 04:00:33;;;;;;;;;;;;;;;0.60;51.29;101368.72;4352727;32;33157;-76
2022/02/13 04:03:01;;;;;;;;;;;;;;;0.69;50.91;101371.06;4352744;32;33508;-76
2022/02/13 04:05:28;;;;;;;;;;;;;;;0.68;50.84;101358.87;4352166;32;34430;-77
2022/02/13 04:07:56;;;;;;;;;;;;;;;0.70;50.61;101358.84;4364707;32;33109;-76
2022/02/13 04:10:23;;;;;;;;;;;;;;;0.58;51.12;101361.84;4352585;32;33056;-76
2022/02/13 04:12:51;;;;;;;;;;;;;;;0.57;51.01;101354.91;4308679;33;34065;-76
2022/02/13 04:15:18;;;;;;;;;;;;;;;0.44;51.42;101351.75;4346182;32;34685;-76
2022/02/13 04:17:46;;;;;;;;;;;;;;;0.49;51.43;101346.41;4332270;32;33314;-76
2022/02/13 04:20:13;;;;;;;;;;;;;;;0.42;51.49;101345.72;4343035;32;34735;-76
2022/02/13 04:22:41;;;;;;;;;;;;;;;0.39;51.64;101337.09;4325523;33;33520;-76
2022/02/13 04:25:09;;;;;;;;;;;;;;;0.41;51.31;101340.53;4347229;32;36149;-76
2022/02/13 04:27:36;;;;;;;;;;;;;;;0.52;50.81;101341.06;4351932;32;35976;-76
2022/02/13 04:30:07;;;;;;;;;;;;;;;0.42;50.82;101345.72;4340292;32;33742;-76
2022/02/13 04:32:35;;;;;;;;;;;;;;;0.42;50.79;101335.25;4352518;32;33115;-76
2022/02/13 04:35:02;;;;;;;;;;;;;;;0.40;50.60;101339.66;4351989;32;34581;-76
2022/02/13 04:37:30;;;;;;;;;;;;;;;0.22;50.70;101334.94;4352699;32;32506;-77
2022/02/13 04:39:57;;;;;;;;;;;;;;;0.24;50.81;101334.91;4352625;32;34239;-76
2022/02/13 04:42:25;;;;;;;;;;;;;;;0.22;50.73;101327.06;4327750;32;33970;-76
2022/02/13 04:44:52;;;;;;;;;;;;;;;0.22;50.79;101334.09;4339273;32;36280;-76
2022/02/13 04:47:20;;;;;;;;;;;;;;;0.29;50.44;101336.47;4353807;32;34548;-76
2022/02/13 04:49:47;;;;;;;;;;;;;;;0.27;50.33;101332.19;4340257;32;33623;-76
2022/02/13 04:52:15;;;;;;;;;;;;;;;0.12;50.59;101332.63;4327463;32;33382;-76
2022/02/13 04:54:43;;;;;;;;;;;;;;;0.06;50.94;101330.16;4340031;32;35247;-76
2022/02/13 04:57:11;;;;;;;;;;;;;;;-0.33;52.20;101325.13;4339999;32;34244;-76
2022/02/13 04:59:38;;;;;;;;;;;;;;;-0.31;52.40;101315.53;4352741;32;34178;-76
2022/02/13 05:02:06;;;;;;;;;;;;;;;-0.13;51.65;101328.09;4339989;32;33403;-76
2022/02/13 05:04:33;;;;;;;;;;;;;;;-0.25;52.04;101326.66;4353499;32;35464;-76
2022/02/13 05:07:01;;;;;;;;;;;;;;;-0.20;51.84;101321.31;4339971;32;34558;-75
2022/02/13 05:09:29;;;;;;;;;;;;;;;-0.15;51.33;101320.28;4352611;32;33541;-76
2022/02/13 05:11:56;;;;;;;;;;;;;;;-0.08;50.86;101325.31;4352369;32;36024;-76
2022/02/13 05:14:24;;;;;;;;;;;;;;;-0.08;50.65;101323.59;4352124;32;35372;-76
2022/02/13 05:16:52;;;;;;;;;;;;;;;-0.16;50.81;101318.59;4339658;32;33384;-75
2022/02/13 05:19:19;;;;;;;;;;;;;;;-0.34;51.19;101321.69;4352456;32;33378;-76
2022/02/13 05:21:47;;;;;;;;;;;;;;;-0.70;53.63;101324.34;4352456;32;33371;-76
2022/02/13 05:24:14;;;;;;;;;;;;;;;-0.50;53.37;101317.72;4327593;32;35041;-76
2022/02/13 05:26:41;;;;;;;;;;;;;;;-0.14;52.05;101313.28;4339417;32;34544;-76
2022/02/13 05:29:09;;;;;;;;;;;;;;;-0.24;52.25;101312.69;4352424;32;33861;-76
2022/02/13 05:31:37;;;;;;;;;;;;;;;-0.78;53.64;101314.09;4351998;32;33751;-76
2022/02/13 05:34:07;;;;;;;;;;;;;;;-0.57;53.44;101313.53;4339693;32;35452;-76
2022/02/13 05:36:35;;;;;;;;;;;;;;;-0.58;53.14;101318.84;4339288;32;33018;-76
2022/02/13 05:39:02;;;;;;;;;;;;;;;-0.72;53.42;101313.06;4348473;32;33599;-76
2022/02/13 05:41:30;;;;;;;;;;;;;;;-0.67;53.82;101312.06;4351786;32;34851;-76
2022/02/13 05:43:57;;;;;;;;;;;;;;;-0.50;53.28;101307.28;4359409;32;35544;-76
2022/02/13 05:46:25;;;;;;;;;;;;;;;-0.83;54.72;101305.50;4348428;32;33752;-76
2022/02/13 05:48:53;;;;;;;;;;;;;;;-0.66;54.02;101311.16;4342766;32;32842;-76
2022/02/13 05:51:23;;;;;;;;;;;;;;;-0.65;53.93;101301.56;4362210;32;34667;-76
2022/02/13 05:53:51;;;;;;;;;;;;;;;-0.87;54.17;101309.06;4352335;32;35963;-76
2022/02/13 05:56:19;;;;;;;;;;;;;;;-0.84;54.60;101310.75;4350718;32;33838;-76
2022/02/13 05:58:48;;;;;;;;;;;;;;;-0.83;54.52;101304.66;4323465;32;33721;-76
2022/02/13 06:01:16;;;;;;;;;;;;;;;-0.84;54.45;101306.38;4319996;33;34176;-76
2022/02/13 06:03:44;;;;;;;;;;;;;;;-0.86;54.24;101304.72;4324295;33;35741;-76
2022/02/13 06:06:11;;;;;;;;;;;;;;;-0.73;54.14;101309.62;4324543;33;34127;-76
2022/02/13 06:08:39;;;;;;;;;;;;;;;-0.72;53.87;101316.56;4346214;32;33475;-76
2022/02/13 06:11:07;;;;;;;;;;;;;;;-0.70;53.61;101316.50;4338801;32;33427;-76
2022/02/13 06:13:34;;;;;;;;;;;;;;;-0.60;53.10;101320.63;4351410;32;35200;-76
2022/02/13 06:16:01;;;;;;;;;;;;;;;-0.56;53.05;101314.41;4352146;32;35424;-76
2022/02/13 06:18:29;;;;;;;;;;;;;;;-0.79;53.95;101314.97;4351052;32;33635;-76
2022/02/13 06:20:57;;;;;;;;;;;;;;;-0.53;53.34;101316.94;4351577;32;33655;-76
2022/02/13 06:23:24;;;;;;;;;;;;;;;-0.48;52.87;101323.78;4346218;32;35485;-76
2022/02/13 06:25:53;;;;;;;;;;;;;;;-0.42;52.58;101320.12;4351444;32;33782;-76
2022/02/13 06:28:21;;;;;;;;;;;;;;;-0.44;52.59;101324.56;4351400;32;34195;-75
2022/02/13 06:30:48;;;;;;;;;;;;;;;-0.46;52.61;101319.38;4313670;33;33551;-76
2022/02/13 06:33:20;;;;;;;;;;;;;;;-0.65;53.29;101325.09;4348034;32;35400;-76
2022/02/13 06:35:47;;;;;;;;;;;;;;;-0.55;53.29;101331.81;4338777;32;34023;-76
2022/02/13 06:38:15;;;;;;;;;;;;;;;-0.39;52.72;101323.53;4352017;32;33700;-76
2022/02/13 06:40:43;;;;;;;;;;;;;;;-0.38;52.69;101327.03;4352106;32;35026;-76
2022/02/13 06:43:10;;;;;;;;;;;;;;;-0.45;52.99;101330.69;4338736;32;33587;-76
2022/02/13 06:45:38;;;;;;;;;;;;;;;-0.23;52.53;101324.87;4351781;32;35108;-76
2022/02/13 06:48:06;;;;;;;;;;;;;;;-0.18;52.10;101322.13;4352247;32;34158;-76
2022/02/13 06:50:33;;;;;;;;;;;;;;;-0.01;51.56;101316.41;4347743;32;33770;-75
2022/02/13 06:53:02;;;;;;;;;;;;;;;0.04;51.31;101311.87;4338973;32;36396;-76
2022/02/13 06:55:30;;;;;;;;;;;;;;;0.09;51.59;101309.16;4336831;32;34055;-76
2022/02/13 06:57:57;;;;;;;;;;;;;;;0.24;51.25;101321.81;4350987;32;34131;-76
2022/02/13 07:00:25;;;;;;;;;;;;;;;0.34;51.04;101323.25;4337307;32;34915;-76
2022/02/13 07:02:53;;;;;;;;;;;;;;;0.39;51.17;101314.38;4330571;32;36101;-76
2022/02/13 07:05:23;;;;;;;;;;;;;;;0.44;50.80;101309.88;4336016;32;34887;-76
2022/02/13 07:07:50;;;;;;;;;;;;;;;0.53;51.43;101312.22;4337877;32;33626;-76
2022/02/13 07:10:19;;;;;;;;;;;;;;;0.73;50.72;101307.25;4352362;32;34337;-76
2022/02/13 07:12:46;;;;;;;;;;;;;;;0.63;51.38;101302.31;4353748;32;36319;-76
2022/02/13 07:15:14;;;;;;;;;;;;;;;0.58;51.51;101301.63;4353694;32;34857;-76
2022/02/13 07:17:44;;;;;;;;;;;;;;;0.84;51.52;101297.28;4354798;32;34025;-76
2022/02/13 07:20:11;;;;;;;;;;;;;;;1.10;50.61;101294.72;4334404;32;34942;-77
2022/02/13 07:22:39;;;;;;;;;;;;;;;1.30;50.07;101294.91;4352931;32;37772;-76
2022/02/13 07:25:08;;;;;;;;;;;;;;;1.38;49.86;101290.28;4323729;32;32847;-76
2022/02/13 07:27:36;;;;;;;;;;;;;;;1.53;49.65;101288.91;4339164;32;33080;-76
2022/02/13 07:30:05;;;;;;;;;;;;;;;1.43;50.67;101287.50;4354500;32;34015;-76
2022/02/13 07:32:33;;;;;;;;;;;;;;;1.65;49.71;101293.72;4353626;32;35842;-77
2022/02/13 07:35:01;;;;;;;;;;;;;;;1.88;48.91;101291.19;4342615;32;36935;-76
2022/02/13 07:37:28;;;;;;;;;;;;;;;2.10;48.47;101287.75;4340152;32;33293;-76
2022/02/13 07:39:56;;;;;;;;;;;;;;;2.20;48.74;101293.50;4340451;32;32455;-76
2022/02/13 07:42:23;;;;;;;;;;;;;;;2.32;48.59;101287.78;4328377;32;34450;-76
2022/02/13 07:44:51;;;;;;;;;;;;;;;2.34;47.22;101284.19;4339781;32;33016;-76
2022/02/13 07:47:19;;;;;;;;;;;;;;;2.29;48.11;101287.91;4340278;32;34564;-76
2022/02/13 07:49:47;;;;;;;;;;;;;;;2.56;47.39;101281.63;4352448;32;33976;-76
2022/02/13 07:52:14;;;;;;;;;;;;;;;2.65;46.14;101281.28;4340478;32;33733;-77
2022/02/13 07:54:42;;;;;;;;;;;;;;;2.70;46.08;101272.31;4351498;32;35017;-77
2022/02/13 07:57:09;;;;;;;;;;;;;;;2.77;45.81;101279.03;4310389;33;33120;-76
2022/02/13 07:59:42;;;;;;;;;;;;;;;2.91;46.24;101269.69;4340427;32;34466;-77
2022/02/13 08:02:10;;;;;;;;;;;;;;;3.14;44.92;101268.78;4352684;32;35033;-76
2022/02/13 08:04:41;;;;;;;;;;;;;;;3.10;46.06;101268.03;4339770;32;34818;-78
2022/02/13 08:07:08;;;;;;;;;;;;;;;2.92;44.83;101274.03;4334449;33;31449;-76
2022/02/13 08:09:36;;;;;;;;;;;;;;;3.29;44.15;101270.75;4339800;32;33510;-77
2022/02/13 08:12:04;;;;;;;;;;;;;;;3.51;43.80;101263.69;4334673;33;33603;-76
2022/02/13 08:14:32;;;;;;;;;;;;;;;3.48;42.34;101259.41;4325848;32;34110;-77
2022/02/13 08:17:00;;;;;;;;;;;;;;;3.38;43.17;101268.63;4352375;32;33385;-77
2022/02/13 08:19:28;;;;;;;;;;;;;;;3.45;43.59;101264.81;4327102;32;34532;-78
2022/02/13 08:21:56;;;;;;;;;;;;;;;3.46;41.91;101257.75;4352317;32;35339;-78
2022/02/13 08:24:26;;;;;;;;;;;;;;;3.66;41.71;101249.88;4332081;32;32561;-76
2022/02/13 08:26:54;;;;;;;;;;;;;;;3.47;45.28;101256.84;4328257;32;33423;-77
2022/02/13 08:29:22;;;;;;;;;;;;;;;3.89;41.37;101253.22;4351477;32;33819;-76
2022/02/13 08:31:49;;;;;;;;;;;;;;;4.05;42.01;101256.87;4345444;32;35932;-76
2022/02/13 08:34:17;;;;;;;;;;;;;;;4.33;40.66;101243.34;4323324;32;33188;-77
2022/02/13 08:36:45;;;;;;;;;;;;;;;4.00;40.29;101243.09;4352388;32;33434;-75
2022/02/13 08:39:13;;;;;;;;;;;;;;;4.22;40.72;101242.94;4339884;32;32429;-78
2022/02/13 08:41:40;;;;;;;;;;;;;;;4.31;39.74;101246.03;4352780;32;35850;-78
2022/02/13 08:44:08;;;;;;;;;;;;;;;4.09;40.05;101244.44;4339060;32;34867;-78
2022/02/13 08:46:36;;;;;;;;;;;;;;;3.98;41.73;101246.72;4349473;32;33955;-78
2022/02/13 08:49:04;;;;;;;;;;;;;;;4.18;39.82;101233.50;4345596;32;35103;-78
2022/02/13 08:51:31;;;;;;;;;;;;;;;4.44;39.82;101233.16;4338519;32;34952;-78
2022/02/13 08:53:58;;;;;;;;;;;;;;;4.33;39.48;101231.00;4359601;32;33918;-78
2022/02/13 08:56:26;;;;;;;;;;;;;;;4.58;39.33;101236.00;4348278;32;33114;-78
2022/02/13 08:58:55;;;;;;;;;;;;;;;4.88;39.31;101229.25;4352680;32;34267;-78
2022/02/13 09:01:24;;;;;;;;;;;;;;;4.98;38.50;101230.53;4336467;32;35208;-77
2022/02/13 09:03:52;;;;;;;;;;;;;;;5.10;39.36;101222.84;4329488;32;33659;-78
2022/02/13 09:06:19;;;;;;;;;;;;;;;5.34;38.96;101226.94;4327043;32;31739;-78
2022/02/13 09:08:47;;;;;;;;;;;;;;;5.37;38.15;101229.41;4352209;32;33678;-77
2022/02/13 09:11:17;;;;;;;;;;;;;;;5.26;38.74;101226.47;4352090;32;35535;-78
2022/02/13 09:13:44;;;;;;;;;;;;;;;5.33;38.76;101221.72;4341775;32;35258;-77
2022/02/13 09:16:12;;;;;;;;;;;;;;;4.97;39.47;101221.75;4337926;32;33336;-77
2022/02/13 09:18:42;;;;;;;;;;;;;;;5.39;38.95;101218.78;4351071;32;33986;-78
2022/02/13 09:21:09;;;;;;;;;;;;;;;5.72;38.09;101218.78;4333668;33;33675;-77
2022/02/13 09:23:37;;;;;;;;;;;;;;;5.96;37.38;101214.03;4338880;32;33136;-77
2022/02/13 09:26:05;;;;;;;;;;;;;;;6.02;37.31;101214.56;4352188;32;33437;-78
2022/02/13 09:28:37;;;;;;;;;;;;;;;5.67;38.42;101212.03;4328300;32;33676;-77
2022/02/13 09:31:08;;;;;;;;;;;;;;;5.69;38.45;101199.59;4345016;32;34634;-77
2022/02/13 09:33:40;;;;;;;;;;;;;;;5.95;38.02;101199.13;4328014;32;33908;-77
2022/02/13 09:36:12;;;;;;;;;;;;;;;6.04;37.67;101198.59;4327725;32;33648;-77
2022/02/13 09:38:40;;;;;;;;;;;;;;;5.43;38.78;101199.22;4353043;32;32257;-76
2022/02/13 09:41:07;;;;;;;;;;;;;;;5.28;39.45;101195.56;4327650;32;33444;-76
2022/02/13 09:43:35;;;;;;;;;;;;;;;5.31;39.42;101199.84;4351871;32;34885;-76
2022/02/13 09:46:04;;;;;;;;;;;;;;;5.43;39.94;101200.91;4338881;32;33682;-76
2022/02/13 09:48:31;;;;;;;;;;;;;;;5.68;39.24;101201.38;4326964;32;32976;-76
2022/02/13 09:50:59;;;;;;;;;;;;;;;5.88;39.02;101189.81;4339607;32;34017;-76
2022/02/13 09:53:29;;;;;;;;;;;;;;;6.05;39.33;101193.25;4347171;32;34219;-76
2022/02/13 09:55:57;;;;;;;;;;;;;;;6.15;39.23;101191.81;4348926;32;34445;-76
2022/02/13 09:58:25;;;;;;;;;;;;;;;6.26;38.70;101191.25;4353543;32;33686;-76
2022/02/13 10:00:55;;;;;;;;;;;;;;;6.20;39.13;101183.63;4338885;32;33643;-76
2022/02/13 10:03:27;;;;;;;;;;;;;;;6.47;38.80;101174.19;4351413;32;32535;-76
2022/02/13 10:05:58;;;;;;;;;;;;;;;6.70;38.74;101165.84;4352602;32;33964;-76
2022/02/13 10:08:31;;;;;;;;;;;;;;;7.01;38.69;101174.56;4326329;32;34793;-76
2022/02/13 10:11:07;;;;;;;;;;;;;;;7.10;38.27;101159.97;4345275;32;35105;-76
2022/02/13 10:13:46;;;;;;;;;;;;;;;6.95;39.08;101159.06;4351137;32;33008;-76
2022/02/13 10:16:20;;;;;;;;;;;;;;;7.41;37.81;101142.19;4351231;32;31896;-76
2022/02/13 10:18:52;;;;;;;;;;;;;;;7.58;37.98;101136.72;4351388;32;34177;-76
2022/02/13 10:21:30;;;;;;;;;;;;;;;7.67;37.48;101137.94;4351400;32;35317;-77
2022/02/13 10:24:13;;;;;;;;;;;;;;;7.53;38.36;101136.13;4344342;32;34787;-76
2022/02/13 10:26:41;;;;;;;;;;;;;;;7.72;37.55;101122.63;4351434;32;33204;-76
2022/02/13 10:29:10;;;;;;;;;;;;;;;7.56;38.55;101125.34;4326661;32;31971;-76
2022/02/13 10:31:38;;;;;;;;;;;;;;;7.90;37.91;101121.47;4341182;32;35282;-76
2022/02/13 10:34:06;;;;;;;;;;;;;;;7.67;41.01;101127.34;4321271;32;33929;-77
2022/02/13 10:36:40;;;;;;;;;;;;;;;7.79;40.61;101122.16;4342064;32;32803;-76
2022/02/13 10:39:18;;;;;;;;;;;;;;;7.95;41.05;101111.44;4338770;32;34946;-77
2022/02/13 10:41:46;;;;;;;;;;;;;;;7.98;41.06;101112.13;4351280;32;36222;-76
2022/02/13 10:44:13;;;;;;;;;;;;;;;7.68;42.00;101115.81;4331088;32;35123;-76
2022/02/13 10:46:41;;;;;;;;;;;;;;;8.14;40.55;101104.91;4343898;32;33855;-76
2022/02/13 10:49:12;;;;;;;;;;;;;;;7.93;41.24;101102.75;4343977;32;34165;-76
2022/02/13 10:51:44;;;;;;;;;;;;;;;7.99;40.77;101097.03;4367610;32;35353;-77
2022/02/13 10:54:13;;;;;;;;;;;;;;;7.50;41.65;101101.03;4353918;32;35164;-76
2022/02/13 10:56:40;;;;;;;;;;;;;;;7.51;41.43;101092.16;4340649;33;33667;-76
2022/02/13 10:59:08;;;;;;;;;;;;;;;7.59;41.59;101090.75;4354140;32;33105;-76
2022/02/13 11:01:36;;;;;;;;;;;;;;;7.96;41.76;101084.87;4331311;32;34701;-76
2022/02/13 11:04:04;;;;;;;;;;;;;;;8.24;41.42;101076.03;4343206;32;33110;-77
2022/02/13 11:06:35;;;;;;;;;;;;;;;8.59;40.24;101076.28;4354665;32;33149;-77
2022/02/13 11:09:12;;;;;;;;;;;;;;;8.44;41.70;101073.81;4337451;33;33114;-76
2022/02/13 11:11:44;;;;;;;;;;;;;;;8.63;40.74;101064.50;4351684;32;35387;-77
2022/02/13 11:14:41;;;;;;;;;;;;;;;8.07;41.97;101062.97;4344142;32;34840;-76
2022/02/13 11:17:09;;;;;;;;;;;;;;;8.48;41.40;101064.69;4356259;32;33715;-76
2022/02/13 11:19:44;;;;;;;;;;;;;;;8.02;42.46;101062.44;4353016;32;34166;-77
2022/02/13 11:22:11;;;;;;;;;;;;;;;8.48;41.82;101052.28;4336485;33;35054;-77
2022/02/13 11:24:40;;;;;;;;;;;;;;;8.59;41.68;101046.25;4355496;32;33904;-77
2022/02/13 11:27:08;;;;;;;;;;;;;;;8.38;41.29;101045.03;4343085;32;32804;-77
2022/02/13 11:29:50;;;;;;;;;;;;;;;8.59;40.96;101036.50;4355206;32;33926;-76
2022/02/13 11:32:36;;;;;;;;;;;;;;;8.96;40.25;101033.09;4355686;32;36163;-77
2022/02/13 11:35:07;;;;;;;;;;;;;;;9.05;40.38;101027.16;4356987;32;35285;-76
2022/02/13 11:37:45;;;;;;;;;;;;;;;8.79;41.47;101029.87;4329064;32;34098;-77
2022/02/13 11:40:32;;;;;;;;;;;;;;;8.90;40.74;101017.56;4349911;32;33918;-77
2022/02/13 11:43:00;;;;;;;;;;;;;;;9.64;39.79;101012.34;4353057;32;34236;-77
2022/02/13 11:45:31;;;;;;;;;;;;;;;9.58;39.21;101011.00;4342362;32;34416;-77
2022/02/13 11:47:59;;;;;;;;;;;;;;;9.28;40.08;101017.59;4355307;32;33680;-77
2022/02/13 11:50:27;;;;;;;;;;;;;;;9.27;40.46;101008.75;4351787;32;32892;-77
2022/02/13 11:52:55;;;;;;;;;;;;;;;9.25;40.74;100999.22;4342981;32;34895;-77
2022/02/13 11:55:26;;;;;;;;;;;;;;;9.02;41.06;100992.00;4352320;32;34809;-76
2022/02/13 11:58:14;;;;;;;;;;;;;;;9.14;41.08;100994.66;4352810;32;32791;-77
2022/02/13 12:00:43;;;;;;;;;;;;;;;9.27;40.46;100992.84;4354014;32;33702;-77
2022/02/13 12:03:21;;;;;;;;;;;;;;;9.40;40.30;100982.22;4320870;33;33457;-77
2022/02/13 12:05:50;;;;;;;;;;;;;;;9.52;40.96;100991.97;4328412;32;34936;-77
2022/02/13 12:08:23;;;;;;;;;;;;;;;9.41;40.69;100981.25;4339884;32;33354;-77
2022/02/13 12:11:00;;;;;;;;;;;;;;;9.93;39.97;100974.72;4340421;32;34931;-76
2022/02/13 12:13:28;;;;;;;;;;;;;;;10.30;38.87;100957.81;4353534;32;35269;-78
2022/02/13 12:15:56;;;;;;;;;;;;;;;10.24;38.66;100971.56;4339702;32;33877;-77
2022/02/13 12:18:23;;;;;;;;;;;;;;;10.24;39.54;100960.94;4352578;32;32963;-78
2022/02/13 12:21:02;;;;;;;;;;;;;;;10.38;38.95;100955.41;4336275;32;32750;-77
2022/02/13 12:23:30;;;;;;;;;;;;;;;10.01;39.35;100952.94;4340032;32;33360;-77
2022/02/13 12:25:58;;;;;;;;;;;;;;;10.58;38.25;100940.62;4327753;32;32836;-77
2022/02/13 12:28:33;;;;;;;;;;;;;;;10.32;38.19;100945.25;4352100;32;33230;-78
2022/02/13 12:31:03;;;;;;;;;;;;;;;9.96;39.05;100932.00;4340210;32;33628;-77
2022/02/13 12:33:34;;;;;;;;;;;;;;;9.81;39.94;100932.28;4354068;32;35355;-77
2022/02/13 12:36:02;;;;;;;;;;;;;;;10.00;39.49;100936.13;4353751;32;34386;-77
2022/02/13 12:38:30;;;;;;;;;;;;;;;10.17;39.31;100922.47;4338145;32;34536;-78
2022/02/13 12:40:58;;;;;;;;;;;;;;;10.44;39.10;100919.53;4335407;32;34685;-77
2022/02/13 12:43:27;;;;;;;;;;;;;;;9.97;39.82;100919.53;4351849;32;34961;-78
2022/02/13 12:45:55;;;;;;;;;;;;;;;10.37;38.82;100910.34;4350323;32;35191;-77
2022/02/13 12:48:25;;;;;;;;;;;;;;;10.54;38.99;100905.41;4352579;32;34307;-78
2022/02/13 12:50:56;;;;;;;;;;;;;;;10.41;38.64;100910.00;4349018;32;32856;-78
2022/02/13 12:53:27;;;;;;;;;;;;;;;10.62;37.72;100900.34;4351829;32;34160;-78
2022/02/13 12:55:55;;;;;;;;;;;;;;;10.49;38.58;100896.09;4335350;32;35303;-78
2022/02/13 12:58:23;;;;;;;;;;;;;;;10.68;37.89;100891.88;4339915;32;32849;-78
2022/02/13 13:00:54;;;;;;;;;;;;;;;10.51;37.70;100881.72;4335614;32;32415;-78
2022/02/13 13:03:35;;;;;;;;;;;;;;;10.72;37.84;100890.69;4336340;32;33987;-78